Time,TemperatureF,DewpointF,PressureIn,WindDirection,WindDirectionDegrees,WindSpeedMPH,WindSpeedGustMPH,Humidity,HourlyPrecipIn,Conditions,Clouds,dailyrainin,SoftwareType,DateUTC
2013-12-25 00:00:00,11.0,5.9,30.27,SSW,200,2.9,4.0,71,0.00,NA,NA,0.00,meteo_script,2013-12-25 06:00:00,
2013-12-25 00:30:00,11.6,6.8,30.25,SSW,194,3.2,5.0,72,0.00,NA,NA,0.00,meteo_script,2013-12-25 06:30:00,
2013-12-25 01:00:00,12.5,8.0,30.26,South,187,5.2,9.0,74,0.00,NA,NA,0.00,meteo_script,2013-12-25 07:00:00,
2013-12-25 01:30:00,13.3,8.9,30.24,South,185,5.0,8.0,75,0.00,NA,NA,0.00,meteo_script,2013-12-25 07:30:00,
2013-12-25 02:00:00,13.8,9.4,30.23,SSW,207,4.1,9.0,75,0.00,NA,NA,0.00,meteo_script,2013-12-25 08:00:00,
2013-12-25 02:30:00,14.4,10.0,30.21,SSW,203,2.7,4.0,75,0.00,NA,NA,0.00,meteo_script,2013-12-25 08:30:00,
2013-12-25 03:00:00,15.4,11.0,30.21,SSW,208,5.2,8.0,75,0.00,NA,NA,0.00,meteo_script,2013-12-25 09:00:00,
2013-12-25 03:30:00,16.0,11.6,30.22,SSW,208,5.3,10.0,75,0.00,NA,NA,0.00,meteo_script,2013-12-25 09:30:00,
2013-12-25 04:00:00,16.2,11.8,30.23,SSW,205,4.2,7.0,75,0.00,NA,NA,0.00,meteo_script,2013-12-25 10:00:00,
2013-12-25 04:30:00,16.5,11.9,30.19,SSW,212,4.2,8.0,74,0.00,NA,NA,0.00,meteo_script,2013-12-25 10:30:00,
2013-12-25 05:00:00,16.8,12.1,30.20,SW,217,3.2,6.0,74,0.00,NA,NA,0.00,meteo_script,2013-12-25 11:00:00,
2013-12-25 05:30:00,17.2,12.4,30.19,SW,216,3.2,5.0,73,0.00,NA,NA,0.00,meteo_script,2013-12-25 11:30:00,
2013-12-25 06:00:00,17.5,12.6,30.19,SW,227,2.1,3.0,73,0.00,NA,NA,0.00,meteo_script,2013-12-25 12:00:00,
2013-12-25 06:30:00,17.8,12.9,30.17,SSW,213,3.2,5.0,73,0.00,NA,NA,0.00,meteo_script,2013-12-25 12:30:00,
2013-12-25 07:00:00,17.9,13.2,30.18,SW,231,4.1,5.0,73,0.00,NA,NA,0.00,meteo_script,2013-12-25 13:00:00,
2013-12-25 07:30:00,18.0,13.3,30.19,WSW,237,2.4,3.0,74,0.00,NA,NA,0.00,meteo_script,2013-12-25 13:30:00,
2013-12-25 08:00:00,18.2,13.5,30.19,WSW,253,5.7,9.0,74,0.00,NA,NA,0.00,meteo_script,2013-12-25 14:00:00,
2013-12-25 08:30:00,18.7,13.8,30.19,SW,217,4.0,8.0,73,0.00,NA,NA,0.00,meteo_script,2013-12-25 14:30:00,
2013-12-25 09:00:00,19.1,14.1,30.20,SW,228,3.8,5.0,73,0.00,NA,NA,0.00,meteo_script,2013-12-25 15:00:00,
2013-12-25 09:30:00,19.5,14.5,30.18,WSW,247,4.4,7.0,73,0.00,NA,NA,0.00,meteo_script,2013-12-25 15:30:00,
2013-12-25 10:00:00,19.6,14.4,30.19,WSW,247,3.6,8.0,72,0.00,NA,NA,0.00,meteo_script,2013-12-25 16:00:00,
2013-12-25 10:30:00,20.9,15.6,30.17,SW,227,2.7,5.0,72,0.00,NA,NA,0.00,meteo_script,2013-12-25 16:30:00,
2013-12-25 11:00:00,21.6,15.9,30.17,WSW,238,4.0,6.0,70,0.00,NA,NA,0.00,meteo_script,2013-12-25 17:00:00,
2013-12-25 11:30:00,22.0,16.2,30.15,WSW,237,3.9,7.0,69,0.00,NA,NA,0.00,meteo_script,2013-12-25 17:30:00,
2013-12-25 12:00:00,22.8,16.8,30.14,SW,228,3.3,6.0,69,0.00,NA,NA,0.00,meteo_script,2013-12-25 18:00:00,
2013-12-25 12:30:00,23.5,17.7,30.13,SSW,210,5.6,10.0,69,0.00,NA,NA,0.00,meteo_script,2013-12-25 18:30:00,
2013-12-25 13:00:00,24.0,18.2,30.11,SSW,210,4.8,8.0,69,0.00,NA,NA,0.00,meteo_script,2013-12-25 19:00:00,
2013-12-25 13:30:00,24.5,18.4,30.11,SSW,202,2.9,6.0,69,0.00,NA,NA,0.00,meteo_script,2013-12-25 19:30:00,
2013-12-25 14:00:00,25.2,19.1,30.12,SW,227,2.5,4.0,69,0.00,NA,NA,0.00,meteo_script,2013-12-25 20:00:00,
2013-12-25 14:30:00,25.0,18.9,30.11,SW,236,2.8,5.0,69,0.00,NA,NA,0.00,meteo_script,2013-12-25 20:30:00,
2013-12-25 15:00:00,24.3,18.7,30.12,SW,229,2.8,4.0,71,0.00,NA,NA,0.00,meteo_script,2013-12-25 21:00:00,
2013-12-25 15:30:00,24.2,18.8,30.12,SW,228,3.4,5.0,72,0.00,NA,NA,0.00,meteo_script,2013-12-25 21:30:00,
2013-12-25 16:00:00,23.8,18.6,30.12,SW,230,2.7,4.0,72,0.00,NA,NA,0.00,meteo_script,2013-12-25 22:00:00,
2013-12-25 16:30:00,23.2,18.2,30.13,SW,225,3.6,5.0,73,0.00,NA,NA,0.00,meteo_script,2013-12-25 22:30:00,
2013-12-25 17:00:00,22.6,17.7,30.12,SW,226,2.3,4.0,74,0.00,NA,NA,0.00,meteo_script,2013-12-25 23:00:00,
2013-12-25 17:30:00,22.7,18.0,30.11,WSW,239,4.1,7.0,75,0.00,NA,NA,0.00,meteo_script,2013-12-25 23:30:00,
2013-12-25 18:00:00,22.7,18.0,30.10,SW,230,2.4,4.0,75,0.00,NA,NA,0.00,meteo_script,2013-12-26 00:00:00,
2013-12-25 18:30:00,22.6,18.0,30.11,WSW,237,4.3,7.0,75,0.00,NA,NA,0.00,meteo_script,2013-12-26 00:30:00,
2013-12-25 19:00:00,22.6,18.1,30.10,WSW,252,5.7,8.0,76,0.00,NA,NA,0.00,meteo_script,2013-12-26 01:00:00,
2013-12-25 19:30:00,22.8,18.3,30.09,WSW,239,4.0,6.0,76,0.00,NA,NA,0.00,meteo_script,2013-12-26 01:30:00,
2013-12-25 20:00:00,22.9,18.4,30.11,WSW,237,3.6,5.0,76,0.00,NA,NA,0.00,meteo_script,2013-12-26 02:00:00,
2013-12-25 20:30:00,22.9,18.5,30.10,SW,228,3.6,5.0,76,0.00,NA,NA,0.00,meteo_script,2013-12-26 02:30:00,
2013-12-25 21:00:00,22.7,18.5,30.10,WSW,241,3.7,5.0,77,0.00,NA,NA,0.00,meteo_script,2013-12-26 03:00:00,
2013-12-25 21:30:00,22.0,17.7,30.08,West,264,4.0,6.0,76,0.00,NA,NA,0.00,meteo_script,2013-12-26 03:30:00,
2013-12-25 22:00:00,22.0,17.5,30.09,WSW,241,3.8,7.0,75,0.00,NA,NA,0.00,meteo_script,2013-12-26 04:00:00,
2013-12-25 22:30:00,21.9,17.3,30.09,West,260,4.3,9.0,75,0.00,NA,NA,0.00,meteo_script,2013-12-26 04:30:00,
2013-12-25 23:00:00,21.8,16.9,30.09,West,267,3.4,5.0,74,0.00,NA,NA,0.00,meteo_script,2013-12-26 05:00:00,
2013-12-25 23:30:00,21.3,16.0,30.12,WNW,287,3.7,7.0,72,0.00,NA,NA,0.00,meteo_script,2013-12-26 05:30:00,